Time;durP1;ratioP1;P1;durP2;ratioP2;P2;SDS_P1;SDS_P2;PMS_P1;PMS_P2;Temp;Humidity;BMP_temperature;BMP_pressure;BME280_temperature;BME280_humidity;BME280_pressure;Samples;Min_cycle;Max_cycle;Signal;HPM_P1;HPM_P2
2021/08/06 06:23:07;;;;;;;13.88;12.10;;;;;;;24.82;77.89;99274.01;1766841;79;21218;-40
2021/08/06 06:25:34;;;;;;;20.08;15.10;;;;;;;24.98;78.75;99272.34;1774407;80;21089;-41
2021/08/06 06:28:03;;;;;;;27.42;17.15;;;;;;;25.06;79.61;99274.86;1787444;79;21035;-41
2021/08/06 06:30:34;;;;;;;30.88;17.95;;;;;;;25.03;78.88;99273.70;1771643;79;21125;-37
2021/08/06 06:33:01;;;;;;;22.60;16.45;;;;;;;24.96;79.31;99280.50;1790334;79;21015;-38
2021/08/06 06:35:28;;;;;;;31.57;16.52;;;;;;;24.90;80.22;99287.16;1785409;79;21115;-41
2021/08/06 06:37:55;;;;;;;37.45;16.62;;;;;;;24.83;81.08;99297.11;1766006;81;21614;-41
2021/08/06 06:40:23;;;;;;;20.08;16.48;;;;;;;24.74;81.81;99305.31;1804469;79;21134;-41
2021/08/06 06:42:51;;;;;;;24.20;17.25;;;;;;;24.64;82.28;99309.17;1775198;79;21067;-37
2021/08/06 06:45:19;;;;;;;19.17;16.17;;;;;;;24.50;83.01;99310.64;1744838;79;21043;-36
2021/08/06 06:47:48;;;;;;;26.12;16.90;;;;;;;24.40;83.64;99309.60;1808948;79;21107;-36
2021/08/06 06:50:18;;;;;;;24.00;16.07;;;;;;;24.29;83.76;99316.17;1765092;81;21134;-41
2021/08/06 06:52:44;;;;;;;27.48;17.35;;;;;;;24.24;83.72;99315.19;1792452;79;21044;-36
2021/08/06 06:55:11;;;;;;;21.57;16.77;;;;;;;24.22;83.96;99322.92;1756603;79;21108;-41
2021/08/06 06:57:50;;;;;;;23.10;17.67;;;;;;;24.18;84.59;99328.98;1809590;79;21057;-41
2021/08/06 07:00:20;;;;;;;37.73;19.62;;;;;;;24.18;85.43;99334.78;1808909;79;21108;-36
2021/08/06 07:02:47;;;;;;;29.60;21.23;;;;;;;24.23;85.73;99336.17;1804163;79;21013;-37
2021/08/06 07:05:14;;;;;;;26.17;19.95;;;;;;;24.35;86.08;99341.15;1808610;78;21049;-42
2021/08/06 07:07:42;;;;;;;22.45;18.57;;;;;;;24.39;85.19;99350.18;1797975;79;21528;-37
2021/08/06 07:10:10;;;;;;;25.62;17.87;;;;;;;24.39;85.19;99350.18;1803627;79;21550;-37
2021/08/06 07:12:38;;;;;;;23.47;16.27;;;;;;;24.43;85.72;99338.80;1773100;79;21002;-37
2021/08/06 07:15:07;;;;;;;26.23;16.17;;;;;;;24.57;85.19;99339.97;1781765;79;21494;-37
2021/08/06 07:17:35;;;;;;;20.48;17.12;;;;;;;24.72;84.22;99337.16;1789523;78;20993;-41
2021/08/06 07:20:03;;;;;;;22.25;17.30;;;;;;;24.84;83.87;99346.47;1773926;81;21097;-37
2021/08/06 07:22:30;;;;;;;22.13;16.70;;;;;;;24.95;83.65;99351.03;1775119;80;21029;-37
2021/08/06 07:24:56;;;;;;;18.30;13.58;;;;;;;25.06;83.30;99343.58;1808211;79;21018;-41
2021/08/06 07:27:23;;;;;;;22.87;14.87;;;;;;;25.13;82.59;99348.34;1773250;80;21042;-41
2021/08/06 07:29:50;;;;;;;19.40;16.15;;;;;;;25.11;79.81;99354.31;1775110;80;21030;-37
2021/08/06 07:32:17;;;;;;;19.70;12.98;;;;;;;24.87;74.89;99349.39;1773933;81;21561;-37
2021/08/06 07:34:44;;;;;;;16.07;13.48;;;;;;;24.51;74.83;99336.89;1776953;79;21097;-42
2021/08/06 07:37:10;;;;;;;16.55;13.35;;;;;;;24.26;76.16;99333.77;1757207;81;21053;-42
2021/08/06 07:39:38;;;;;;;16.40;12.00;;;;;;;24.11;75.68;99339.23;1774451;81;21042;-37
2021/08/06 07:42:06;;;;;;;14.73;12.63;;;;;;;24.08;76.67;99338.13;1777000;80;21029;-42
2021/08/06 07:44:33;;;;;;;13.90;10.75;;;;;;;24.18;76.45;99330.78;1777769;80;21509;-42
2021/08/06 07:47:02;;;;;;;14.70;11.22;;;;;;;24.57;74.21;99340.46;1809472;79;21572;-42
2021/08/06 07:49:30;;;;;;;21.42;11.63;;;;;;;24.57;74.21;99340.46;1809997;79;21045;-42
2021/08/06 07:51:57;;;;;;;13.05;9.85;;;;;;;24.71;73.85;99343.00;1802560;79;21029;-39
2021/08/06 07:54:23;;;;;;;10.13;8.75;;;;;;;24.76;72.36;99337.28;1744007;82;21138;-43
2021/08/06 07:56:51;;;;;;;9.53;7.00;;;;;;;24.76;71.09;99331.94;1775210;79;21065;-38
2021/08/06 07:59:19;;;;;;;8.83;6.85;;;;;;;24.79;70.83;99322.36;1776284;81;21084;-42
2021/08/06 08:01:46;;;;;;;12.10;7.58;;;;;;;24.87;70.35;99311.45;1775775;79;21081;-43
2021/08/06 08:04:15;;;;;;;6.95;4.75;;;;;;;25.00;68.69;99306.55;1745116;80;21108;-42
2021/08/06 08:06:42;;;;;;;7.33;5.30;;;;;;;25.18;67.21;99310.05;1761949;80;21012;-42
2021/08/06 08:09:10;;;;;;;9.70;5.22;;;;;;;25.39;65.98;99304.02;1752379;80;21010;-42
2021/08/06 08:11:37;;;;;;;8.15;5.30;;;;;;;25.59;65.81;99291.30;1759566;81;21081;-38
2021/08/06 08:14:03;;;;;;;6.35;4.60;;;;;;;25.84;65.55;99280.88;1773646;81;21525;-43
2021/08/06 08:16:30;;;;;;;6.92;4.42;;;;;;;26.13;64.45;99269.66;1775541;80;21057;-43
2021/08/06 08:18:59;;;;;;;5.50;4.25;;;;;;;26.35;62.39;99270.13;1797376;79;21415;-43
2021/08/06 08:21:26;;;;;;;5.00;3.72;;;;;;;26.44;60.60;99262.22;1780746;79;21004;-38
2021/08/06 08:23:53;;;;;;;9.68;4.65;;;;;;;26.53;60.23;99252.06;1801928;79;20989;-43
2021/08/06 08:26:21;;;;;;;7.05;3.87;;;;;;;26.64;60.17;99237.77;1776342;79;21053;-39
2021/08/06 08:28:47;;;;;;;9.28;4.20;;;;;;;26.81;60.28;99224.78;1775766;79;20991;-34
2021/08/06 08:31:15;;;;;;;7.65;4.87;;;;;;;26.95;59.71;99209.20;1755203;79;21118;-39
2021/08/06 08:33:41;;;;;;;6.47;4.72;;;;;;;27.10;59.17;99192.83;1771995;79;21047;-34
2021/08/06 08:36:08;;;;;;;8.68;5.28;;;;;;;27.21;59.26;99185.55;1774675;79;21046;-38
2021/08/06 08:38:35;;;;;;;6.85;5.12;;;;;;;27.38;58.16;99183.25;1775933;81;21045;-38
2021/08/06 08:41:03;;;;;;;8.08;5.62;;;;;;;27.46;57.81;99182.92;1753921;81;21568;-38
2021/08/06 08:43:30;;;;;;;8.65;5.65;;;;;;;27.54;57.65;99175.06;1752017;81;21055;-34
2021/08/06 08:45:57;;;;;;;8.88;6.37;;;;;;;27.65;57.25;99169.21;1776698;79;21061;-36
2021/08/06 08:48:24;;;;;;;7.80;5.97;;;;;;;27.70;56.51;99157.11;1774215;79;21065;-38
2021/08/06 08:50:54;;;;;;;24.75;6.72;;;;;;;27.75;57.59;99148.14;1780567;79;21101;-38
2021/08/06 08:53:23;;;;;;;12.18;7.03;;;;;;;27.84;58.27;99132.56;1774165;79;21064;-38
2021/08/06 08:55:50;;;;;;;24.00;7.30;;;;;;;27.97;58.24;99126.08;1776650;79;21561;-37
2021/08/06 08:58:18;;;;;;;35.68;8.03;;;;;;;28.07;58.16;99125.11;1766265;80;21541;-34
2021/08/06 09:00:45;;;;;;;29.75;8.58;;;;;;;28.15;57.70;99116.33;1775771;81;21128;-33
2021/08/06 09:03:46;;;;;;;50.65;9.20;;;;;;;28.21;57.47;99118.45;1774688;79;21045;-33
2021/08/06 09:06:22;;;;;;;19.67;7.90;;;;;;;28.32;57.86;99117.02;1773142;79;21030;-35
2021/08/06 09:08:50;;;;;;;27.17;8.45;;;;;;;28.46;57.38;99110.84;1728474;81;21073;-35
2021/08/06 09:11:34;;;;;;;21.55;7.62;;;;;;;28.56;57.11;99100.94;1746925;81;21544;-40
2021/08/06 09:14:27;;;;;;;24.80;7.62;;;;;;;28.65;55.90;99100.59;1773491;79;21073;-39
2021/08/06 09:17:10;;;;;;;18.67;9.03;;;;;;;28.74;55.27;99097.86;1744075;82;21132;-39
2021/08/06 09:19:45;;;;;;;16.32;7.95;;;;;;;28.84;55.63;99093.81;1772068;81;21113;-40
2021/08/06 09:22:20;;;;;;;22.02;8.28;;;;;;;28.93;56.07;99097.49;1756513;81;21576;-40
2021/08/06 09:25:14;;;;;;;17.30;8.05;;;;;;;29.02;56.12;99077.78;1774638;80;21175;-35
